Time;durP1;ratioP1;P1;durP2;ratioP2;P2;SDS_P1;SDS_P2;PMS_P1;PMS_P2;Temp;Humidity;BMP_temperature;BMP_pressure;BME280_temperature;BME280_humidity;BME280_pressure;Samples;Min_cycle;Max_cycle;Signal;HPM_P1;HPM_P2
2023/07/31 00:02:06;;;;;;;5.18;1.42;;;18.60;99.90;;;;;;5099761;28;20251;-61
2023/07/31 00:04:34;;;;;;;4.93;1.58;;;18.50;99.90;;;;;;5079106;28;20629;-60
2023/07/31 00:07:04;;;;;;;2.20;1.40;;;18.60;99.90;;;;;;5072946;28;20233;-61
2023/07/31 00:09:32;;;;;;;3.97;1.63;;;18.60;99.90;;;;;;5077318;28;20200;-59
2023/07/31 00:11:59;;;;;;;9.07;1.58;;;18.60;99.90;;;;;;5080309;28;20249;-60
2023/07/31 00:14:29;;;;;;;9.27;1.52;;;18.60;99.90;;;;;;5105394;28;20204;-59
2023/07/31 00:16:57;;;;;;;3.53;1.42;;;18.60;99.90;;;;;;5113089;28;20212;-61
2023/07/31 00:19:24;;;;;;;4.13;1.38;;;18.70;99.90;;;;;;5097927;28;20197;-60
2023/07/31 00:21:52;;;;;;;3.17;1.20;;;18.70;99.90;;;;;;5095267;28;20296;-60
2023/07/31 00:24:21;;;;;;;5.05;1.63;;;18.70;99.90;;;;;;5084541;28;20640;-61
2023/07/31 00:26:48;;;;;;;3.25;1.25;;;18.70;99.90;;;;;;5078477;28;20272;-60
2023/07/31 00:29:16;;;;;;;5.97;1.30;;;18.70;99.90;;;;;;5099776;28;20270;-60
2023/07/31 00:31:46;;;;;;;6.13;1.52;;;18.70;99.90;;;;;;5093195;28;20195;-60
2023/07/31 00:34:14;;;;;;;3.88;1.60;;;18.70;99.90;;;;;;5083592;28;20291;-61
2023/07/31 00:36:42;;;;;;;9.18;1.52;;;18.70;99.90;;;;;;5105767;28;20222;-60
2023/07/31 00:39:10;;;;;;;4.90;1.42;;;18.70;99.90;;;;;;5082797;28;20291;-59
2023/07/31 00:41:38;;;;;;;7.93;1.50;;;18.70;99.90;;;;;;5093473;28;20225;-60
2023/07/31 00:44:06;;;;;;;5.43;1.52;;;18.70;99.90;;;;;;5098834;28;20844;-61
2023/07/31 00:46:34;;;;;;;5.35;1.40;;;18.70;99.90;;;;;;5111486;28;20203;-61
2023/07/31 00:49:03;;;;;;;2.22;1.63;;;18.70;99.90;;;;;;5080984;28;20227;-60
2023/07/31 00:51:31;;;;;;;4.93;1.60;;;18.70;99.90;;;;;;5095770;28;20220;-60
2023/07/31 00:53:59;;;;;;;4.55;1.85;;;18.70;99.90;;;;;;5103472;28;20790;-60
2023/07/31 00:56:27;;;;;;;5.25;1.40;;;18.70;99.90;;;;;;5096336;28;20287;-60
2023/07/31 00:58:55;;;;;;;7.78;1.48;;;18.80;99.90;;;;;;5111451;28;20736;-60
2023/07/31 01:01:23;;;;;;;7.28;1.50;;;18.80;99.90;;;;;;5103522;28;20699;-60
2023/07/31 01:03:53;;;;;;;5.97;1.88;;;18.80;99.90;;;;;;5104923;28;20711;-60
2023/07/31 01:06:26;;;;;;;6.05;1.60;;;18.80;99.90;;;;;;5111608;28;20203;-59
2023/07/31 01:08:59;;;;;;;6.47;1.35;;;18.80;99.90;;;;;;5099466;28;20674;-60
2023/07/31 01:11:29;;;;;;;2.28;1.35;;;18.80;99.90;;;;;;5091288;28;20234;-60
2023/07/31 01:13:57;;;;;;;2.25;1.33;;;18.80;99.90;;;;;;5103845;28;20231;-61
2023/07/31 01:16:26;;;;;;;3.95;1.67;;;18.80;99.90;;;;;;5112200;28;20249;-60
2023/07/31 01:18:54;;;;;;;5.70;1.45;;;18.80;99.90;;;;;;5098891;28;20279;-60
2023/07/31 01:21:45;;;;;;;6.18;1.92;;;18.80;99.90;;;;;;5109292;28;20269;-60
2023/07/31 01:24:22;;;;;;;4.35;1.92;;;18.80;99.90;;;;;;5107566;28;20241;-60
2023/07/31 01:26:54;;;;;;;5.20;1.95;;;18.90;99.90;;;;;;5099863;28;20588;-60
2023/07/31 01:29:26;;;;;;;7.60;1.88;;;18.80;99.90;;;;;;5109128;28;20251;-61
2023/07/31 01:31:54;;;;;;;3.65;1.45;;;18.80;99.90;;;;;;5096104;28;20228;-60
2023/07/31 01:34:22;;;;;;;4.50;1.63;;;18.80;99.90;;;;;;5111546;28;20257;-60
2023/07/31 01:36:50;;;;;;;7.53;1.92;;;18.80;99.90;;;;;;5113453;28;20326;-60
2023/07/31 01:39:21;;;;;;;4.57;1.67;;;18.80;99.90;;;;;;5102656;28;20234;-60
2023/07/31 01:41:49;;;;;;;4.18;1.50;;;18.80;99.90;;;;;;5105266;28;20220;-61
2023/07/31 01:44:18;;;;;;;4.50;1.67;;;18.80;99.90;;;;;;5104848;28;20253;-61
2023/07/31 01:46:46;;;;;;;10.90;1.85;;;18.80;99.90;;;;;;5098565;28;20239;-61
2023/07/31 01:49:14;;;;;;;6.03;1.80;;;18.70;99.90;;;;;;5110232;28;20269;-61
2023/07/31 01:51:42;;;;;;;2.60;1.50;;;18.70;99.90;;;;;;5106155;28;20231;-61
2023/07/31 01:54:09;;;;;;;3.65;1.58;;;18.70;99.90;;;;;;5102476;28;20201;-61
2023/07/31 01:56:37;;;;;;;2.33;1.67;;;18.70;99.90;;;;;;5112699;28;20586;-61
2023/07/31 01:59:07;;;;;;;3.22;1.50;;;18.70;99.90;;;;;;5100682;28;20234;-61
2023/07/31 02:01:36;;;;;;;4.65;1.85;;;18.70;99.90;;;;;;5106816;28;20274;-60
2023/07/31 02:04:04;;;;;;;4.55;1.92;;;18.70;99.90;;;;;;5109084;28;20203;-61
2023/07/31 02:06:32;;;;;;;10.15;2.10;;;18.70;99.90;;;;;;5098914;28;20292;-61
2023/07/31 02:09:00;;;;;;;5.32;1.85;;;18.60;99.90;;;;;;5099956;28;20280;-61
2023/07/31 02:11:28;;;;;;;4.07;1.58;;;18.60;99.90;;;;;;5103761;28;20726;-61
2023/07/31 02:13:57;;;;;;;4.10;1.65;;;18.60;99.90;;;;;;5103576;28;20309;-62
2023/07/31 02:16:26;;;;;;;6.05;1.92;;;18.60;99.90;;;;;;5111499;28;20664;-62
2023/07/31 02:18:55;;;;;;;4.82;2.05;;;18.60;99.90;;;;;;5098805;28;20203;-61
2023/07/31 02:21:23;;;;;;;5.50;2.13;;;18.60;99.90;;;;;;5108595;28;20312;-61
2023/07/31 02:23:51;;;;;;;8.32;1.73;;;18.60;99.90;;;;;;5106585;28;20261;-61
2023/07/31 02:26:19;;;;;;;5.75;1.85;;;18.60;99.90;;;;;;5100234;28;20292;-61
2023/07/31 02:28:47;;;;;;;4.32;1.95;;;18.60;99.90;;;;;;5112277;28;20259;-62
2023/07/31 02:31:15;;;;;;;5.40;1.92;;;18.50;99.90;;;;;;5102121;28;20279;-62
2023/07/31 02:33:43;;;;;;;9.00;2.00;;;18.50;99.90;;;;;;5106008;28;20224;-61
2023/07/31 02:36:12;;;;;;;5.47;1.90;;;18.60;99.90;;;;;;5109377;28;20732;-62
2023/07/31 02:38:40;;;;;;;2.85;1.60;;;18.50;99.90;;;;;;5099011;28;20235;-61
2023/07/31 02:41:08;;;;;;;6.03;2.05;;;18.50;99.90;;;;;;5110715;28;20279;-62
2023/07/31 02:43:35;;;;;;;6.05;2.03;;;18.50;99.90;;;;;;5095900;28;20312;-62
2023/07/31 02:46:03;;;;;;;8.35;2.10;;;18.50;99.90;;;;;;5094996;28;20231;-61
2023/07/31 02:48:31;;;;;;;5.50;1.83;;;18.50;99.90;;;;;;5112233;28;20206;-62
2023/07/31 02:50:59;;;;;;;4.75;2.30;;;18.50;99.90;;;;;;5099534;28;20279;-62
2023/07/31 02:53:29;;;;;;;4.40;1.98;;;18.50;99.90;;;;;;5106827;28;20224;-60
2023/07/31 02:55:57;;;;;;;3.78;2.08;;;18.50;99.90;;;;;;5101540;22;20227;-75
2023/07/31 02:58:25;;;;;;;6.93;2.10;;;18.50;99.90;;;;;;5093657;28;20669;-75
2023/07/31 03:00:52;;;;;;;6.15;2.13;;;18.50;99.90;;;;;;5106275;28;20293;-75
2023/07/31 03:03:20;;;;;;;4.38;2.25;;;18.50;99.90;;;;;;5098898;28;20221;-75
2023/07/31 03:05:48;;;;;;;2.65;1.70;;;18.50;99.90;;;;;;5093098;28;20710;-75
2023/07/31 03:08:16;;;;;;;4.68;2.13;;;18.50;99.90;;;;;;5108379;28;20256;-75
2023/07/31 03:10:45;;;;;;;7.97;1.65;;;18.50;99.90;;;;;;5109459;28;20250;-75
2023/07/31 03:13:13;;;;;;;6.72;2.10;;;18.50;99.90;;;;;;5107623;28;20741;-75
2023/07/31 03:15:43;;;;;;;6.50;2.00;;;18.40;99.90;;;;;;5102850;28;20227;-75
2023/07/31 03:18:11;;;;;;;7.93;1.70;;;18.40;99.90;;;;;;5107934;28;20196;-75
2023/07/31 03:20:42;;;;;;;4.28;1.90;;;18.40;99.90;;;;;;5094230;28;20654;-75
2023/07/31 03:23:10;;;;;;;9.95;2.03;;;18.40;99.90;;;;;;5098432;28;20324;-75
2023/07/31 03:25:38;;;;;;;3.33;1.88;;;18.40;99.90;;;;;;5094055;28;20282;-75
2023/07/31 03:28:07;;;;;;;4.35;1.92;;;18.40;99.90;;;;;;5099979;28;20679;-75
2023/07/31 03:30:38;;;;;;;7.68;2.33;;;18.40;99.90;;;;;;5100339;28;20621;-75
2023/07/31 03:33:05;;;;;;;8.00;1.85;;;18.30;99.90;;;;;;5097243;28;20737;-75
2023/07/31 03:35:33;;;;;;;2.78;1.80;;;18.30;99.90;;;;;;5101311;28;20283;-75
2023/07/31 03:38:01;;;;;;;4.85;1.85;;;18.30;99.90;;;;;;5103210;28;20291;-75
2023/07/31 03:40:29;;;;;;;5.47;1.75;;;18.30;99.90;;;;;;5092923;28;20622;-75
2023/07/31 03:42:57;;;;;;;3.25;2.13;;;18.30;99.90;;;;;;5079830;28;20711;-75
2023/07/31 03:45:26;;;;;;;5.13;2.03;;;18.30;99.90;;;;;;5105000;28;20307;-75
2023/07/31 03:47:54;;;;;;;5.82;1.98;;;18.20;99.90;;;;;;5104727;28;20373;-75
2023/07/31 03:50:22;;;;;;;5.35;1.65;;;18.20;99.90;;;;;;5112879;28;20223;-75
2023/07/31 03:52:50;;;;;;;6.00;2.10;;;18.20;99.90;;;;;;5096010;28;21569;-74
2023/07/31 03:55:18;;;;;;;2.90;1.88;;;18.20;99.90;;;;;;5105731;28;20266;-74
2023/07/31 03:57:46;;;;;;;10.30;2.35;;;18.20;99.90;;;;;;5103180;28;20862;-74
2023/07/31 04:00:14;;;;;;;8.07;2.40;;;18.20;99.90;;;;;;5098035;28;20216;-74
2023/07/31 04:02:44;;;;;;;4.00;2.03;;;18.10;99.90;;;;;;5092551;28;20208;-76
2023/07/31 04:05:12;;;;;;;5.35;1.67;;;18.10;99.90;;;;;;5091955;28;20673;-76
2023/07/31 04:07:40;;;;;;;7.53;2.63;;;18.10;99.90;;;;;;5102227;28;20203;-76
2023/07/31 04:10:09;;;;;;;3.55;2.15;;;18.00;99.90;;;;;;5108045;28;20223;-75
2023/07/31 04:12:40;;;;;;;6.63;1.98;;;18.00;99.90;;;;;;5112425;28;20741;-75
2023/07/31 04:15:08;;;;;;;6.50;2.20;;;18.00;99.90;;;;;;5096259;28;20291;-75
2023/07/31 04:17:36;;;;;;;5.30;2.63;;;18.00;99.90;;;;;;5097474;28;20200;-75
2023/07/31 04:20:07;;;;;;;3.85;2.15;;;18.00;99.90;;;;;;5086282;28;20224;-75
2023/07/31 04:22:35;;;;;;;6.15;2.38;;;18.00;99.90;;;;;;5095850;28;20254;-75
2023/07/31 04:25:03;;;;;;;4.50;2.05;;;18.00;99.90;;;;;;5090990;28;20243;-75
2023/07/31 04:27:31;;;;;;;3.85;2.20;;;18.00;99.90;;;;;;5092846;28;20569;-75
2023/07/31 04:29:59;;;;;;;7.30;2.90;;;18.00;99.90;;;;;;5097426;28;20306;-75
2023/07/31 04:32:26;;;;;;;6.30;2.08;;;18.00;99.90;;;;;;5096910;28;20192;-75
2023/07/31 04:34:54;;;;;;;7.68;2.15;;;18.00;99.90;;;;;;5094768;28;20225;-75
2023/07/31 04:37:24;;;;;;;7.63;2.45;;;18.10;99.90;;;;;;5093301;28;20658;-75
2023/07/31 04:39:51;;;;;;;8.48;2.50;;;18.10;99.90;;;;;;5102535;28;20302;-75
2023/07/31 04:42:19;;;;;;;6.28;2.30;;;18.10;99.90;;;;;;5096313;28;20290;-74
2023/07/31 04:44:47;;;;;;;10.02;2.72;;;18.10;99.90;;;;;;5107956;28;20555;-75
2023/07/31 04:47:15;;;;;;;2.95;1.98;;;18.10;99.90;;;;;;5097954;28;20206;-75
2023/07/31 04:49:43;;;;;;;10.13;2.47;;;18.10;99.90;;;;;;5101498;28;20274;-75
2023/07/31 04:52:11;;;;;;;8.10;2.15;;;18.10;99.90;;;;;;5105618;28;20294;-75
2023/07/31 04:54:40;;;;;;;3.33;1.88;;;18.10;99.90;;;;;;5093401;28;20208;-75
2023/07/31 04:57:08;;;;;;;6.38;2.13;;;18.10;99.90;;;;;;5106805;28;20249;-75
2023/07/31 04:59:36;;;;;;;8.27;2.85;;;18.10;99.90;;;;;;5100468;28;20251;-74
2023/07/31 05:02:05;;;;;;;6.97;2.58;;;18.10;99.90;;;;;;5098408;28;20234;-76
2023/07/31 05:04:33;;;;;;;7.82;2.50;;;18.10;99.90;;;;;;5107726;28;20219;-75
2023/07/31 05:07:01;;;;;;;6.40;2.47;;;18.10;99.90;;;;;;5095758;28;20290;-74
2023/07/31 05:09:29;;;;;;;6.55;2.30;;;18.10;99.90;;;;;;5107234;28;20305;-75
2023/07/31 05:11:58;;;;;;;8.50;3.08;;;18.20;99.90;;;;;;5111499;28;20744;-76
2023/07/31 05:14:26;;;;;;;4.97;2.00;;;18.10;99.90;;;;;;5095097;28;20231;-74
2023/07/31 05:16:54;;;;;;;3.92;1.90;;;18.10;99.90;;;;;;5107690;28;20720;-72
2023/07/31 05:19:22;;;;;;;5.22;2.30;;;18.10;99.90;;;;;;5098161;28;20215;-71
2023/07/31 05:21:50;;;;;;;5.97;2.13;;;18.30;99.90;;;;;;5097689;28;20231;-71
2023/07/31 05:24:18;;;;;;;7.75;2.15;;;18.50;99.90;;;;;;5103732;28;20740;-72
2023/07/31 05:26:45;;;;;;;4.72;2.10;;;18.60;99.90;;;;;;5090689;28;20206;-71
2023/07/31 05:29:15;;;;;;;5.20;2.13;;;18.80;99.90;;;;;;5102595;28;20196;-71
2023/07/31 05:31:42;;;;;;;5.40;2.17;;;18.90;99.90;;;;;;5098567;28;20734;-69
2023/07/31 05:34:10;;;;;;;4.97;2.20;;;18.90;99.90;;;;;;5094047;28;20665;-70
2023/07/31 05:36:38;;;;;;;3.78;1.85;;;18.90;99.90;;;;;;5105189;28;20214;-70
2023/07/31 05:39:07;;;;;;;3.65;2.22;;;18.90;99.90;;;;;;5093639;28;20203;-70
2023/07/31 05:41:35;;;;;;;4.82;2.15;;;18.90;99.90;;;;;;5099697;28;20231;-70
2023/07/31 05:44:04;;;;;;;5.90;2.55;;;18.90;99.90;;;;;;5102588;28;20207;-70
2023/07/31 05:46:33;;;;;;;6.80;2.22;;;18.90;99.90;;;;;;5094980;28;20296;-70
2023/07/31 05:49:01;;;;;;;9.20;2.60;;;18.80;99.90;;;;;;5107329;27;20242;-70
2023/07/31 05:51:29;;;;;;;4.78;2.38;;;18.70;99.90;;;;;;5100029;28;20725;-70
2023/07/31 05:53:57;;;;;;;6.70;2.15;;;18.70;99.90;;;;;;5111795;28;20249;-70
2023/07/31 05:56:26;;;;;;;5.82;2.42;;;18.70;99.90;;;;;;5095967;28;20215;-70
2023/07/31 05:58:54;;;;;;;4.35;2.08;;;18.70;99.90;;;;;;5108810;28;20279;-70
2023/07/31 06:01:22;;;;;;;7.38;2.55;;;18.80;99.90;;;;;;5098828;28;20780;-70
2023/07/31 06:03:51;;;;;;;4.63;2.50;;;18.90;99.90;;;;;;5100889;28;20448;-70
2023/07/31 06:06:19;;;;;;;6.38;2.08;;;19.00;99.90;;;;;;5106769;28;20564;-70
2023/07/31 06:08:47;;;;;;;6.03;2.60;;;19.10;99.90;;;;;;5095025;28;20287;-73
2023/07/31 06:11:15;;;;;;;7.25;2.88;;;19.20;99.90;;;;;;5111814;28;20791;-73
2023/07/31 06:13:44;;;;;;;6.45;2.30;;;19.10;99.90;;;;;;5101222;28;20756;-73
2023/07/31 06:16:12;;;;;;;6.30;2.35;;;19.10;99.90;;;;;;5105557;28;20729;-73
2023/07/31 06:18:40;;;;;;;6.18;2.30;;;19.00;99.90;;;;;;5110756;28;20192;-73
2023/07/31 06:21:09;;;;;;;5.70;2.10;;;19.00;99.90;;;;;;5096873;28;20306;-73
2023/07/31 06:23:37;;;;;;;8.05;2.22;;;18.90;99.90;;;;;;5102418;28;20302;-73
2023/07/31 06:26:05;;;;;;;4.60;2.08;;;19.00;99.90;;;;;;5104567;28;20191;-73
2023/07/31 06:28:33;;;;;;;4.70;2.17;;;19.00;99.90;;;;;;5094517;28;20204;-73
2023/07/31 06:31:01;;;;;;;5.15;2.25;;;19.10;99.90;;;;;;5111720;28;20263;-73
2023/07/31 06:33:29;;;;;;;4.25;2.10;;;19.20;99.90;;;;;;5103368;28;20287;-73
2023/07/31 06:35:57;;;;;;;3.85;2.15;;;19.20;99.90;;;;;;5101687;28;20227;-74
2023/07/31 06:38:27;;;;;;;3.33;2.30;;;19.20;99.90;;;;;;5107691;28;20298;-74
2023/07/31 06:40:55;;;;;;;6.13;2.42;;;19.20;99.90;;;;;;5093934;28;20862;-74
2023/07/31 06:43:23;;;;;;;6.13;2.63;;;19.20;99.90;;;;;;5102686;28;20286;-74
2023/07/31 06:45:53;;;;;;;5.50;2.55;;;19.20;99.90;;;;;;5102737;28;20211;-74
2023/07/31 06:48:21;;;;;;;5.63;1.92;;;19.20;99.90;;;;;;5096014;28;20261;-74
2023/07/31 06:50:49;;;;;;;7.28;2.25;;;19.20;99.90;;;;;;5097820;28;20303;-74
2023/07/31 06:53:17;;;;;;;8.15;2.50;;;19.30;99.90;;;;;;5110804;28;20231;-74
2023/07/31 06:55:48;;;;;;;4.90;2.30;;;19.40;99.90;;;;;;5098438;28;20243;-74
2023/07/31 06:58:16;;;;;;;9.57;2.30;;;19.40;99.90;;;;;;5105210;28;20191;-74
2023/07/31 07:00:43;;;;;;;6.82;2.30;;;19.40;99.90;;;;;;5093951;28;20224;-74
2023/07/31 07:03:14;;;;;;;8.02;2.35;;;19.40;99.90;;;;;;5105281;28;20595;-74
2023/07/31 07:05:42;;;;;;;9.45;2.50;;;19.40;99.90;;;;;;5100417;28;20243;-74
2023/07/31 07:08:10;;;;;;;4.70;2.53;;;19.40;99.90;;;;;;5097271;28;20200;-75
2023/07/31 07:10:38;;;;;;;10.35;2.30;;;19.50;99.90;;;;;;5108436;28;20251;-74
2023/07/31 07:13:07;;;;;;;7.13;2.38;;;19.50;99.90;;;;;;5106253;28;20922;-74
2023/07/31 07:15:35;;;;;;;7.47;2.70;;;19.60;99.90;;;;;;5099260;28;20192;-74
2023/07/31 07:18:03;;;;;;;3.58;2.28;;;19.60;99.90;;;;;;5097534;28;20673;-74
2023/07/31 07:20:31;;;;;;;5.90;2.45;;;19.60;99.90;;;;;;5107195;28;20302;-74
2023/07/31 07:22:59;;;;;;;8.68;2.85;;;19.80;99.90;;;;;;5094646;28;20241;-74
2023/07/31 07:25:27;;;;;;;5.90;2.17;;;19.90;99.90;;;;;;5102329;28;20760;-74
2023/07/31 07:27:55;;;;;;;6.13;2.78;;;20.00;99.90;;;;;;5102173;28;20658;-74
2023/07/31 07:30:25;;;;;;;6.53;2.25;;;20.10;99.90;;;;;;5094681;28;20224;-74
2023/07/31 07:32:53;;;;;;;6.90;2.25;;;20.20;99.90;;;;;;5106836;28;20196;-74
2023/07/31 07:35:21;;;;;;;5.90;2.97;;;20.30;99.90;;;;;;5097148;28;20195;-74
2023/07/31 07:37:49;;;;;;;11.90;2.42;;;20.40;99.90;;;;;;5099189;28;20198;-74
2023/07/31 07:40:20;;;;;;;9.05;2.60;;;20.40;99.90;;;;;;5105720;28;20383;-74
2023/07/31 07:42:47;;;;;;;8.73;2.28;;;20.50;99.90;;;;;;5093747;28;20204;-74
2023/07/31 07:45:15;;;;;;;7.93;2.22;;;20.50;99.90;;;;;;5103784;28;20205;-74
2023/07/31 07:47:45;;;;;;;6.93;2.55;;;20.50;99.90;;;;;;5100127;28;20208;-74
2023/07/31 07:50:13;;;;;;;5.20;2.50;;;20.50;99.90;;;;;;5095628;28;20281;-74
2023/07/31 07:52:41;;;;;;;5.85;2.08;;;20.40;99.90;;;;;;5106778;28;20207;-74
2023/07/31 07:55:09;;;;;;;7.05;2.20;;;20.40;99.90;;;;;;5094827;28;20200;-74
2023/07/31 07:57:37;;;;;;;8.73;2.20;;;20.50;99.90;;;;;;5100869;28;20666;-74
2023/07/31 08:00:06;;;;;;;5.75;2.50;;;20.70;99.90;;;;;;5102503;28;20296;-74
2023/07/31 08:02:34;;;;;;;4.68;2.65;;;20.80;99.90;;;;;;5093050;28;20236;-74
2023/07/31 08:05:03;;;;;;;4.25;2.38;;;20.90;99.90;;;;;;5104902;28;20256;-74
2023/07/31 08:07:31;;;;;;;4.40;2.22;;;20.90;99.90;;;;;;5098369;28;20199;-74
2023/07/31 08:09:59;;;;;;;4.80;2.33;;;20.90;99.90;;;;;;5105142;28;20701;-74
2023/07/31 08:12:27;;;;;;;7.55;2.45;;;20.80;99.90;;;;;;5109880;28;20203;-74
2023/07/31 08:14:55;;;;;;;5.65;2.47;;;20.90;99.90;;;;;;5092869;28;20286;-74
2023/07/31 08:17:22;;;;;;;5.72;2.60;;;21.00;99.90;;;;;;5102259;28;20223;-74
2023/07/31 08:19:51;;;;;;;6.30;2.55;;;21.00;99.90;;;;;;5100583;28;20227;-74
2023/07/31 08:22:20;;;;;;;4.97;2.28;;;21.00;99.90;;;;;;5094562;28;20196;-74
2023/07/31 08:24:48;;;;;;;5.10;2.20;;;21.10;99.90;;;;;;5105450;28;20223;-74
2023/07/31 08:27:16;;;;;;;5.90;2.25;;;21.30;99.90;;;;;;5095634;28;20275;-74
2023/07/31 08:29:44;;;;;;;8.73;2.47;;;21.30;99.90;;;;;;5099175;28;20219;-74
2023/07/31 08:32:12;;;;;;;4.80;2.10;;;21.50;99.90;;;;;;5103731;28;20278;-74
2023/07/31 08:34:41;;;;;;;3.25;2.35;;;21.70;99.90;;;;;;5092253;28;20290;-74
2023/07/31 08:37:10;;;;;;;4.65;2.42;;;21.80;99.90;;;;;;5104541;28;20196;-74
2023/07/31 08:39:40;;;;;;;5.88;2.30;;;21.90;99.90;;;;;;5098097;28;20578;-74
2023/07/31 08:42:09;;;;;;;4.03;2.15;;;21.90;99.90;;;;;;5096247;28;20279;-74
2023/07/31 08:44:36;;;;;;;7.50;2.70;;;21.90;99.90;;;;;;5106635;28;20235;-74
2023/07/31 08:47:05;;;;;;;5.28;1.92;;;22.00;99.90;;;;;;5093920;28;20222;-74
2023/07/31 08:49:33;;;;;;;7.00;2.38;;;22.10;99.90;;;;;;5100342;28;20627;-74
2023/07/31 08:52:01;;;;;;;5.32;2.30;;;22.10;99.90;;;;;;5102055;28;20636;-74
2023/07/31 08:54:30;;;;;;;3.40;2.50;;;22.20;99.90;;;;;;5092271;28;20669;-74
2023/07/31 08:57:00;;;;;;;9.80;3.10;;;22.10;99.90;;;;;;5075978;28;20237;-74
2023/07/31 08:59:29;;;;;;;4.25;2.20;;;22.00;99.90;;;;;;5100392;28;20768;-74
2023/07/31 09:01:57;;;;;;;5.10;2.58;;;22.00;99.90;;;;;;5101262;28;20256;-74
2023/07/31 09:04:25;;;;;;;5.93;2.60;;;21.90;99.90;;;;;;5093053;28;20207;-74
2023/07/31 09:06:53;;;;;;;3.38;2.35;;;21.80;99.90;;;;;;5106133;28;20219;-74
2023/07/31 09:09:22;;;;;;;8.73;2.42;;;21.60;99.90;;;;;;5096079;28;20620;-74
2023/07/31 09:11:51;;;;;;;6.00;2.42;;;21.40;99.90;;;;;;5109640;28;20227;-72
2023/07/31 09:14:20;;;;;;;8.77;2.30;;;21.30;99.90;;;;;;5093978;28;20204;-73
2023/07/31 09:16:55;;;;;;;10.38;2.78;;;21.20;99.90;;;;;;5105168;28;20547;-73
2023/07/31 09:19:27;;;;;;;2.88;2.10;;;21.10;99.90;;;;;;5097734;28;20302;-73
2023/07/31 09:21:55;;;;;;;5.43;2.60;;;21.10;99.90;;;;;;5101309;28;20397;-73
2023/07/31 09:24:26;;;;;;;5.63;2.38;;;21.10;99.90;;;;;;5108952;28;20203;-73
2023/07/31 09:26:54;;;;;;;7.32;2.60;;;21.20;99.90;;;;;;5096057;28;20219;-73
2023/07/31 09:29:24;;;;;;;3.88;2.53;;;21.40;99.90;;;;;;5105696;28;20704;-73
2023/07/31 09:31:52;;;;;;;6.68;1.95;;;21.70;99.90;;;;;;5103998;28;20231;-74
2023/07/31 09:34:20;;;;;;;4.40;2.38;;;21.80;99.90;;;;;;5097721;28;20249;-73
2023/07/31 09:36:49;;;;;;;3.92;2.53;;;21.90;99.90;;;;;;5109293;28;20203;-74
2023/07/31 09:39:19;;;;;;;6.30;2.80;;;21.90;99.90;;;;;;5099240;28;20576;-73
2023/07/31 09:41:48;;;;;;;5.55;2.30;;;22.00;99.90;;;;;;5110459;22;20236;-60
2023/07/31 09:44:16;;;;;;;3.70;2.35;;;22.00;99.90;;;;;;5079989;28;20232;-61
2023/07/31 09:46:47;;;;;;;5.60;2.70;;;22.00;99.90;;;;;;5091430;28;20282;-61
2023/07/31 09:49:15;;;;;;;7.35;2.65;;;21.90;99.90;;;;;;5081077;28;20196;-61
2023/07/31 09:51:43;;;;;;;4.95;2.30;;;21.90;99.90;;;;;;5084868;28;20290;-60
2023/07/31 09:54:12;;;;;;;6.63;2.63;;;22.00;99.90;;;;;;5088897;28;20295;-60
2023/07/31 09:56:43;;;;;;;6.72;2.65;;;22.00;99.90;;;;;;5077572;28;20229;-61
2023/07/31 09:59:12;;;;;;;6.30;2.55;;;22.00;99.90;;;;;;5089401;28;20638;-61
2023/07/31 10:01:40;;;;;;;3.80;2.08;;;22.10;99.90;;;;;;5084201;28;20287;-60
2023/07/31 10:04:10;;;;;;;5.40;2.78;;;22.20;99.90;;;;;;5081162;28;20205;-61
2023/07/31 10:06:38;;;;;;;5.03;2.50;;;22.20;99.90;;;;;;5090619;28;20651;-60
2023/07/31 10:09:07;;;;;;;5.30;2.47;;;22.10;99.90;;;;;;5079386;28;20281;-61
2023/07/31 10:11:38;;;;;;;7.40;2.95;;;22.10;99.90;;;;;;5094758;28;20251;-60
2023/07/31 10:14:06;;;;;;;5.63;2.47;;;22.20;99.90;;;;;;5081343;28;20201;-59
2023/07/31 10:16:34;;;;;;;7.45;2.67;;;22.30;99.90;;;;;;5090704;28;20243;-60
2023/07/31 10:19:02;;;;;;;8.68;2.75;;;22.30;99.90;;;;;;5078069;28;20196;-60
2023/07/31 10:21:34;;;;;;;5.43;2.70;;;22.30;99.90;;;;;;5085859;28;20227;-59
2023/07/31 10:24:03;;;;;;;6.18;3.20;;;22.30;99.90;;;;;;5086727;28;20295;-59
2023/07/31 10:26:32;;;;;;;4.68;2.60;;;22.30;99.90;;;;;;5077171;28;20272;-60
2023/07/31 10:29:00;;;;;;;7.30;3.03;;;22.40;99.90;;;;;;5090226;28;20624;-60
2023/07/31 10:31:28;;;;;;;5.88;2.72;;;22.60;99.90;;;;;;5080639;28;20250;-60
2023/07/31 10:33:57;;;;;;;8.15;3.10;;;22.80;99.90;;;;;;5082353;28;20291;-60
2023/07/31 10:36:25;;;;;;;3.97;2.45;;;23.00;99.90;;;;;;5089673;28;20230;-59
2023/07/31 10:38:55;;;;;;;5.68;2.40;;;23.10;99.90;;;;;;5077278;28;20234;-60
2023/07/31 10:41:29;;;;;;;11.27;3.35;;;23.30;99.90;;;;;;5096739;28;20247;-60
2023/07/31 10:43:58;;;;;;;7.13;3.05;;;23.40;99.90;;;;;;5105975;28;20685;-61
2023/07/31 10:46:26;;;;;;;7.45;2.72;;;23.80;99.90;;;;;;5097170;28;20708;-60
2023/07/31 10:48:58;;;;;;;6.38;2.67;;;24.00;99.90;;;;;;5109669;28;20200;-60
2023/07/31 10:51:33;;;;;;;4.60;2.85;;;23.90;99.90;;;;;;5100332;28;20286;-60
2023/07/31 10:54:13;;;;;;;10.75;2.90;;;23.80;99.90;;;;;;5100479;28;20294;-60
2023/07/31 10:56:41;;;;;;;5.80;2.80;;;23.60;99.90;;;;;;5106079;28;20220;-61
2023/07/31 10:59:12;;;;;;;5.20;3.17;;;23.40;99.90;;;;;;5108321;28;20287;-61
2023/07/31 11:01:53;;;;;;;5.85;2.90;;;23.40;99.90;;;;;;5101800;28;20272;-61
2023/07/31 11:04:24;;;;;;;6.72;3.03;;;23.20;99.90;;;;;;5098522;28;20647;-60
2023/07/31 11:06:58;;;;;;;10.00;2.67;;;23.10;99.90;;;;;;5110126;28;20723;-61
2023/07/31 11:09:31;;;;;;;5.03;3.00;;;22.90;99.90;;;;;;5101249;28;20202;-61
2023/07/31 11:12:00;;;;;;;8.25;2.60;;;22.80;99.90;;;;;;5113856;28;20203;-61
2023/07/31 11:14:27;;;;;;;6.80;3.25;;;22.70;99.90;;;;;;5097269;28;20200;-61
2023/07/31 11:16:55;;;;;;;8.13;2.60;;;22.60;99.90;;;;;;5079924;28;20638;-61
2023/07/31 11:19:24;;;;;;;5.53;2.40;;;22.80;99.90;;;;;;5106160;28;20203;-61
2023/07/31 11:21:52;;;;;;;6.60;2.70;;;22.90;99.90;;;;;;5105226;28;20222;-61
2023/07/31 11:24:21;;;;;;;6.38;2.90;;;23.20;99.90;;;;;;5094874;28;20295;-60
2023/07/31 11:26:51;;;;;;;7.95;2.70;;;23.50;99.90;;;;;;5106451;28;20231;-60
2023/07/31 11:29:19;;;;;;;5.97;2.92;;;23.60;99.90;;;;;;5096877;28;20195;-61
2023/07/31 11:31:48;;;;;;;6.38;2.45;;;23.50;99.90;;;;;;5099311;28;20200;-61
2023/07/31 11:34:17;;;;;;;5.00;2.83;;;23.40;99.90;;;;;;5104521;28;20203;-61
2023/07/31 11:36:54;;;;;;;4.63;2.70;;;23.20;99.90;;;;;;5092812;28;20249;-61
2023/07/31 11:39:22;;;;;;;4.70;2.42;;;23.00;99.90;;;;;;5102673;28;20682;-60
2023/07/31 11:41:52;;;;;;;6.60;2.67;;;22.90;99.90;;;;;;5100059;28;20242;-59
2023/07/31 11:44:20;;;;;;;3.42;2.65;;;22.90;99.90;;;;;;5094373;28;20706;-59
2023/07/31 11:46:57;;;;;;;5.75;2.63;;;22.80;99.90;;;;;;5106056;28;20310;-60
2023/07/31 11:49:25;;;;;;;5.72;2.58;;;22.80;99.90;;;;;;5097390;28;20203;-60
2023/07/31 11:51:53;;;;;;;6.20;2.30;;;22.70;99.90;;;;;;5098366;28;20283;-60
2023/07/31 11:54:21;;;;;;;3.22;2.58;;;22.70;99.90;;;;;;5105283;28;20203;-62
2023/07/31 11:56:50;;;;;;;6.65;3.08;;;22.80;99.90;;;;;;5092695;28;20248;-61
2023/07/31 11:59:19;;;;;;;3.03;2.45;;;22.80;99.90;;;;;;5102789;28;20207;-61
2023/07/31 12:01:50;;;;;;;5.57;2.80;;;22.90;99.90;;;;;;5090100;28;20253;-61
2023/07/31 12:04:19;;;;;;;3.08;2.38;;;23.00;99.90;;;;;;5095023;28;20200;-60
2023/07/31 12:06:47;;;;;;;3.92;2.50;;;23.10;99.90;;;;;;5091240;28;21107;-61
2023/07/31 12:09:16;;;;;;;2.50;2.00;;;23.10;99.90;;;;;;5105524;28;20216;-59
2023/07/31 12:11:44;;;;;;;3.92;2.42;;;23.10;99.90;;;;;;5109405;28;20188;-61
2023/07/31 12:14:22;;;;;;;6.18;3.00;;;23.00;99.90;;;;;;5094962;28;20231;-62
2023/07/31 12:16:54;;;;;;;4.80;2.58;;;22.90;99.90;;;;;;5105588;28;20729;-60
2023/07/31 12:19:22;;;;;;;4.70;2.70;;;22.80;99.90;;;;;;5096925;28;20227;-62
2023/07/31 12:21:51;;;;;;;7.50;2.83;;;22.70;99.90;;;;;;5097872;28;20204;-60
2023/07/31 12:24:19;;;;;;;7.40;2.97;;;22.70;99.90;;;;;;5104119;28;20231;-60
2023/07/31 12:26:47;;;;;;;5.63;2.40;;;22.60;99.90;;;;;;5105174;28;20276;-61
2023/07/31 12:29:18;;;;;;;3.10;2.35;;;22.60;99.90;;;;;;5086171;28;20213;-59
2023/07/31 12:31:48;;;;;;;6.90;2.33;;;22.60;99.90;;;;;;5090989;28;20204;-60
2023/07/31 12:34:17;;;;;;;6.60;2.53;;;22.60;99.90;;;;;;5089925;28;20279;-59
2023/07/31 12:36:45;;;;;;;7.60;2.75;;;22.60;99.90;;;;;;5088732;28;20661;-59
2023/07/31 12:39:13;;;;;;;11.60;2.85;;;22.70;99.90;;;;;;5097419;28;20199;-59
2023/07/31 12:41:41;;;;;;;6.32;2.78;;;22.80;99.90;;;;;;5097607;28;20739;-60
2023/07/31 12:44:10;;;;;;;6.30;2.60;;;22.80;99.90;;;;;;5097695;28;20239;-60
2023/07/31 12:46:37;;;;;;;3.78;2.60;;;22.90;99.90;;;;;;5093369;28;20251;-59
2023/07/31 12:49:07;;;;;;;5.10;2.60;;;23.10;99.90;;;;;;5113091;28;20207;-59
2023/07/31 12:51:35;;;;;;;7.22;2.70;;;23.20;99.90;;;;;;5093402;28;20245;-60
2023/07/31 12:54:03;;;;;;;5.88;2.55;;;23.30;99.90;;;;;;5085256;28;20200;-60